createdAt,value
2016-03-24T00:00:14.360Z,997.91
2016-03-24T00:01:14.378Z,997.86
2016-03-24T00:02:14.396Z,997.83
2016-03-24T00:03:14.461Z,997.85
2016-03-24T00:04:14.433Z,997.91
2016-03-24T00:05:14.452Z,997.91
2016-03-24T00:06:14.469Z,997.94
2016-03-24T00:07:14.488Z,997.92
2016-03-24T00:08:14.506Z,997.93
2016-03-24T00:09:14.510Z,997.98
2016-03-24T00:10:14.527Z,997.94
2016-03-24T00:11:14.546Z,997.98
2016-03-24T00:12:14.563Z,997.94
2016-03-24T00:13:14.582Z,997.97
2016-03-24T00:14:14.601Z,997.95
2016-03-24T00:15:14.619Z,997.95
2016-03-24T00:16:14.637Z,997.95
2016-03-24T00:17:14.656Z,997.98
2016-03-24T00:18:14.674Z,997.97
2016-03-24T00:19:14.692Z,997.97
2016-03-24T00:20:14.695Z,997.99
2016-03-24T00:21:14.712Z,997.99
2016-03-24T00:22:14.732Z,997.99
2016-03-24T00:23:14.750Z,997.98
2016-03-24T00:24:14.768Z,998.02
2016-03-24T00:25:14.786Z,998.01
2016-03-24T00:26:14.805Z,998.03
2016-03-24T00:27:14.823Z,998.05
2016-03-24T00:28:14.842Z,998.05
2016-03-24T00:29:14.859Z,998.04
2016-03-24T00:30:14.878Z,998.02
2016-03-24T00:31:14.881Z,998.05
2016-03-24T00:32:14.900Z,998
2016-03-24T00:33:15.027Z,998.03
2016-03-24T00:34:14.935Z,998.03
2016-03-24T00:35:14.954Z,998.09
2016-03-24T00:36:14.972Z,998.04
2016-03-24T00:37:14.991Z,998.06
2016-03-24T00:38:15.008Z,998.02
2016-03-24T00:39:15.027Z,998.02
2016-03-24T00:40:15.045Z,998.04
2016-03-24T00:41:15.049Z,998.04
2016-03-24T00:42:15.082Z,998
2016-03-24T00:43:15.085Z,998.02
2016-03-24T00:44:15.103Z,998.04
2016-03-24T00:45:15.122Z,998.05
2016-03-24T00:46:15.140Z,998.04
2016-03-24T00:47:15.158Z,998.03
2016-03-24T00:48:15.176Z,998.03
2016-03-24T00:49:15.195Z,998.04
2016-03-24T00:50:15.213Z,998.08
2016-03-24T00:51:15.231Z,998.07
2016-03-24T00:52:15.234Z,998.03
2016-03-24T00:53:15.252Z,998.1
2016-03-24T00:54:15.270Z,998.1
2016-03-24T00:55:15.289Z,998.09
2016-03-24T00:56:15.307Z,998.11
2016-03-24T00:57:15.325Z,998.1
2016-03-24T00:58:15.344Z,998.07
2016-03-24T00:59:15.362Z,998.1
2016-03-24T01:00:15.380Z,998.11
2016-03-24T01:01:15.399Z,998.09
2016-03-24T01:02:15.401Z,998.09
2016-03-24T01:03:15.436Z,998.1
2016-03-24T01:04:15.438Z,998.1
2016-03-24T01:05:15.456Z,998.09
2016-03-24T01:06:15.474Z,998.12
2016-03-24T01:07:15.493Z,998.12
2016-03-24T01:08:15.510Z,998.17
2016-03-24T01:09:15.530Z,998.17
2016-03-24T01:10:15.548Z,998.19
2016-03-24T01:11:15.566Z,998.2
2016-03-24T01:12:15.569Z,998.19
2016-03-24T01:13:15.588Z,998.22
2016-03-24T01:14:15.605Z,998.19
2016-03-24T01:15:15.624Z,998.2
2016-03-24T01:16:15.642Z,998.24
2016-03-24T01:17:15.707Z,998.17
2016-03-24T01:18:15.678Z,998.21
2016-03-24T01:19:15.697Z,998.19
2016-03-24T01:20:15.700Z,998.19
2016-03-24T01:21:15.717Z,998.18
2016-03-24T01:22:15.736Z,998.25
2016-03-24T01:23:15.754Z,998.2
2016-03-24T01:24:15.789Z,998.25
2016-03-24T01:25:15.791Z,998.19
2016-03-24T01:26:15.810Z,998.16
2016-03-24T01:27:15.828Z,998.2
2016-03-24T01:28:15.847Z,998.21
2016-03-24T01:29:15.864Z,998.17
2016-03-24T01:30:15.867Z,998.21
2016-03-24T01:31:15.885Z,998.14
2016-03-24T01:32:15.904Z,998.15
2016-03-24T01:33:15.938Z,998.18
2016-03-24T01:34:15.941Z,998.16
2016-03-24T01:35:15.958Z,998.21
2016-03-24T01:36:15.977Z,998.19
2016-03-24T01:37:15.996Z,998.19
2016-03-24T01:38:15.999Z,998.21
2016-03-24T01:39:16.016Z,998.19
2016-03-24T01:40:16.035Z,998.22
2016-03-24T01:41:16.053Z,998.2
2016-03-24T01:42:16.071Z,998.21
2016-03-24T01:43:16.090Z,998.19
2016-03-24T01:44:16.107Z,998.2
2016-03-24T01:45:16.126Z,998.19
2016-03-24T01:46:16.129Z,998.17
2016-03-24T01:47:16.148Z,998.19
2016-03-24T01:48:16.165Z,998.16
2016-03-24T01:49:16.184Z,998.15
2016-03-24T01:50:16.201Z,998.14
2016-03-24T01:51:16.221Z,998.18
2016-03-24T01:52:16.239Z,998.15
2016-03-24T01:53:16.257Z,998.17
2016-03-24T01:54:16.276Z,998.16
2016-03-24T01:55:16.279Z,998.14
2016-03-24T01:56:16.297Z,998.14
2016-03-24T01:57:16.315Z,998.13
2016-03-24T01:58:16.333Z,998.17
2016-03-24T01:59:16.351Z,998.25
2016-03-24T02:00:16.370Z,998.21
2016-03-24T02:01:16.388Z,998.2
2016-03-24T02:02:16.391Z,998.26
2016-03-24T02:03:16.408Z,998.26
2016-03-24T02:04:16.427Z,998.3
2016-03-24T02:05:16.446Z,998.32
2016-03-24T02:06:16.464Z,998.25
2016-03-24T02:07:16.482Z,998.3
2016-03-24T02:08:16.500Z,998.24
2016-03-24T02:09:16.519Z,998.26
2016-03-24T02:10:16.522Z,998.27
2016-03-24T02:11:16.540Z,998.26
2016-03-24T02:12:16.558Z,998.26
2016-03-24T02:13:16.576Z,998.28
2016-03-24T02:14:16.596Z,998.26
2016-03-24T02:15:16.613Z,998.29
2016-03-24T02:16:16.631Z,998.32
2016-03-24T02:17:16.634Z,998.33
2016-03-24T02:18:16.668Z,998.32
2016-03-24T02:19:16.671Z,998.32
2016-03-24T02:20:16.690Z,998.33
2016-03-24T02:21:16.707Z,998.3
2016-03-24T02:22:16.726Z,998.3
2016-03-24T02:23:16.745Z,998.34
2016-03-24T02:24:16.763Z,998.3
2016-03-24T02:25:16.781Z,998.29
2016-03-24T02:26:16.799Z,998.29
2016-03-24T02:27:16.801Z,998.29
2016-03-24T02:28:16.820Z,998.29
2016-03-24T02:29:16.839Z,998.29
2016-03-24T02:30:16.856Z,998.32
2016-03-24T02:31:16.875Z,998.31
2016-03-24T02:32:16.893Z,998.3
2016-03-24T02:33:16.896Z,998.28
2016-03-24T02:34:16.914Z,998.28
2016-03-24T02:35:16.933Z,998.28
2016-03-24T02:36:16.950Z,998.28
2016-03-24T02:37:16.969Z,998.24
2016-03-24T02:38:16.988Z,998.27
2016-03-24T02:39:16.991Z,998.32
2016-03-24T02:40:17.009Z,998.28
2016-03-24T02:41:17.027Z,998.32
2016-03-24T02:42:17.046Z,998.31
2016-03-24T02:43:17.064Z,998.32
2016-03-24T02:44:17.082Z,998.34
2016-03-24T02:45:17.100Z,998.37
2016-03-24T02:46:17.102Z,998.39
2016-03-24T02:47:17.121Z,998.4
2016-03-24T02:48:17.140Z,998.4
2016-03-24T02:49:17.158Z,998.36
2016-03-24T02:50:17.176Z,998.4
2016-03-24T02:51:17.195Z,998.39
2016-03-24T02:52:17.213Z,998.4
2016-03-24T02:53:17.216Z,998.4
2016-03-24T02:54:17.234Z,998.4
2016-03-24T02:55:17.252Z,998.42
2016-03-24T02:56:17.270Z,998.39
2016-03-24T02:57:17.289Z,998.44
2016-03-24T02:58:17.307Z,998.4
2016-03-24T02:59:17.325Z,998.42
2016-03-24T03:00:17.328Z,998.42
2016-03-24T03:01:17.346Z,998.43
2016-03-24T03:02:17.364Z,998.4
2016-03-24T03:03:17.383Z,998.39
2016-03-24T03:04:17.401Z,998.4
2016-03-24T03:05:17.419Z,998.39
2016-03-24T03:06:17.423Z,998.42
2016-03-24T03:07:17.441Z,998.42
2016-03-24T03:08:17.459Z,998.42
2016-03-24T03:09:17.477Z,998.46
2016-03-24T03:10:17.496Z,998.4
2016-03-24T03:11:17.513Z,998.52
2016-03-24T03:12:17.517Z,998.45
2016-03-24T03:13:17.535Z,998.49
2016-03-24T03:14:17.553Z,998.49
2016-03-24T03:15:17.571Z,998.51
2016-03-24T03:16:17.590Z,998.49
2016-03-24T03:17:17.623Z,998.49
2016-03-24T03:18:17.627Z,998.54
2016-03-24T03:19:17.629Z,998.52
2016-03-24T03:20:17.648Z,998.54
2016-03-24T03:21:17.666Z,998.54
2016-03-24T03:22:17.685Z,998.56
2016-03-24T03:23:17.702Z,998.56
2016-03-24T03:24:17.705Z,998.55
2016-03-24T03:25:17.723Z,998.58
2016-03-24T03:26:17.742Z,998.57
2016-03-24T03:27:17.760Z,998.6
2016-03-24T03:28:17.779Z,998.58
2016-03-24T03:29:17.797Z,998.61
2016-03-24T03:30:17.815Z,998.63
2016-03-24T03:31:17.817Z,998.64
2016-03-24T03:32:17.836Z,998.65
2016-03-24T03:33:17.854Z,998.69
2016-03-24T03:34:17.873Z,998.66
2016-03-24T03:35:17.892Z,998.71
2016-03-24T03:36:17.909Z,998.71
2016-03-24T03:37:17.912Z,998.72
2016-03-24T03:38:17.930Z,998.73
2016-03-24T03:39:17.949Z,998.73
2016-03-24T03:40:17.966Z,998.74
2016-03-24T03:41:17.986Z,998.73
2016-03-24T03:42:18.003Z,998.76
2016-03-24T03:43:18.006Z,998.76
2016-03-24T03:44:18.040Z,998.76
2016-03-24T03:45:18.043Z,998.73
2016-03-24T03:46:18.060Z,998.77
2016-03-24T03:47:18.079Z,998.76
2016-03-24T03:48:18.098Z,998.77
2016-03-24T03:49:18.101Z,998.79
2016-03-24T03:50:18.118Z,998.81
2016-03-24T03:51:18.138Z,998.83
2016-03-24T03:52:18.155Z,998.8
2016-03-24T03:53:18.174Z,998.81
2016-03-24T03:54:18.192Z,998.86
2016-03-24T03:55:18.210Z,998.8
2016-03-24T03:56:18.212Z,998.84
2016-03-24T03:57:18.232Z,998.84
2016-03-24T03:58:18.250Z,998.85
2016-03-24T03:59:18.268Z,998.86
2016-03-24T04:00:18.286Z,998.89
2016-03-24T04:01:18.304Z,998.87
2016-03-24T04:02:18.307Z,998.9
2016-03-24T04:03:18.326Z,998.91
2016-03-24T04:04:18.344Z,998.91
2016-03-24T04:05:18.362Z,998.93
2016-03-24T04:06:18.381Z,998.95
2016-03-24T04:07:18.388Z,998.95
2016-03-24T04:08:18.406Z,998.95
2016-03-24T04:09:18.424Z,998.98
2016-03-24T04:10:18.443Z,998.96
2016-03-24T04:11:18.445Z,999.02
2016-03-24T04:12:18.464Z,999.04
2016-03-24T04:13:18.482Z,999.05
2016-03-24T04:14:18.501Z,999.07
2016-03-24T04:15:18.518Z,999.08
2016-03-24T04:16:18.522Z,999.09
2016-03-24T04:17:18.540Z,999.1
2016-03-24T04:18:18.558Z,999.1
2016-03-24T04:19:18.576Z,999.08
2016-03-24T04:20:18.595Z,999.1
2016-03-24T04:21:18.613Z,999.1
2016-03-24T04:22:18.632Z,999.15
2016-03-24T04:23:18.634Z,999.18
2016-03-24T04:24:18.653Z,999.19
2016-03-24T04:25:18.671Z,999.16
2016-03-24T04:26:18.689Z,999.17
2016-03-24T04:27:18.707Z,999.19
2016-03-24T04:28:18.726Z,999.23
2016-03-24T04:29:18.728Z,999.22
2016-03-24T04:30:18.747Z,999.26
2016-03-24T04:31:18.765Z,999.25
2016-03-24T04:32:18.783Z,999.27
2016-03-24T04:33:18.802Z,999.25
2016-03-24T04:34:18.804Z,999.24
2016-03-24T04:35:18.822Z,999.29
2016-03-24T04:36:18.841Z,999.28
2016-03-24T04:37:18.859Z,999.28
2016-03-24T04:38:18.877Z,999.35
2016-03-24T04:39:18.880Z,999.35
2016-03-24T04:40:18.898Z,999.38
2016-03-24T04:41:18.916Z,999.44
2016-03-24T04:42:18.935Z,999.4
2016-03-24T04:43:18.954Z,999.41
2016-03-24T04:44:18.971Z,999.38
2016-03-24T04:45:18.990Z,999.44
2016-03-24T04:46:18.993Z,999.43
2016-03-24T04:47:19.011Z,999.44
2016-03-24T04:48:19.029Z,999.47
2016-03-24T04:49:19.048Z,999.5
2016-03-24T04:50:19.065Z,999.46
2016-03-24T04:51:19.069Z,999.52
2016-03-24T04:52:19.087Z,999.51
2016-03-24T04:53:19.106Z,999.5
2016-03-24T04:54:19.123Z,999.51
2016-03-24T04:55:19.142Z,999.49
2016-03-24T04:56:19.144Z,999.53
2016-03-24T04:57:19.163Z,999.54
2016-03-24T04:58:19.181Z,999.56
2016-03-24T04:59:19.200Z,999.56
2016-03-24T05:00:19.217Z,999.57
2016-03-24T05:01:19.237Z,999.57
2016-03-24T05:02:19.239Z,999.53
2016-03-24T05:03:19.258Z,999.57
2016-03-24T05:04:19.275Z,999.54
2016-03-24T05:05:19.294Z,999.57
2016-03-24T05:06:19.311Z,999.52
2016-03-24T05:07:19.315Z,999.58
2016-03-24T05:08:19.333Z,999.6
2016-03-24T05:09:19.352Z,999.62
2016-03-24T05:10:19.369Z,999.61
2016-03-24T05:11:19.388Z,999.68
2016-03-24T05:12:19.391Z,999.62
2016-03-24T05:13:19.424Z,999.68
2016-03-24T05:14:19.427Z,999.67
2016-03-24T05:15:19.446Z,999.7
2016-03-24T05:16:19.464Z,999.7
2016-03-24T05:17:19.482Z,999.7
2016-03-24T05:18:19.485Z,999.74
2016-03-24T05:19:19.504Z,999.74
2016-03-24T05:20:19.521Z,999.77
2016-03-24T05:21:19.540Z,999.78
2016-03-24T05:22:19.543Z,999.82
2016-03-24T05:23:19.576Z,999.8
2016-03-24T05:24:19.579Z,999.84
2016-03-24T05:25:19.597Z,999.88
2016-03-24T05:26:19.615Z,999.85
2016-03-24T05:27:19.634Z,999.85
2016-03-24T05:28:19.637Z,999.87
2016-03-24T05:29:19.655Z,999.88
2016-03-24T05:30:19.673Z,999.88
2016-03-24T05:31:19.692Z,999.89
2016-03-24T05:32:19.711Z,999.91
2016-03-24T05:33:19.713Z,999.92
2016-03-24T05:34:19.731Z,999.93
2016-03-24T05:35:19.749Z,999.94
2016-03-24T05:36:19.768Z,999.96
2016-03-24T05:37:19.786Z,999.97
2016-03-24T05:38:19.805Z,999.96
2016-03-24T05:39:19.807Z,1000
2016-03-24T05:40:19.825Z,999.97
2016-03-24T05:41:19.843Z,1000
2016-03-24T05:42:19.863Z,1000.02
2016-03-24T05:43:19.880Z,1000.09
2016-03-24T05:44:19.883Z,1000.07
2016-03-24T05:45:19.902Z,1000.13
2016-03-24T05:46:19.920Z,1000.18
2016-03-24T05:47:19.938Z,1000.16
2016-03-24T05:48:19.957Z,1000.14
2016-03-24T05:49:19.959Z,1000.17
2016-03-24T05:50:19.977Z,1000.22
2016-03-24T05:51:19.996Z,1000.19
2016-03-24T05:52:20.015Z,1000.22
2016-03-24T05:53:20.032Z,1000.23
2016-03-24T05:54:20.051Z,1000.27
2016-03-24T05:55:20.053Z,1000.28
2016-03-24T05:56:20.071Z,1000.31
2016-03-24T05:57:20.090Z,1000.34
2016-03-24T05:58:20.109Z,1000.35
2016-03-24T05:59:20.126Z,1000.36
2016-03-24T06:00:20.145Z,1000.37
2016-03-24T06:01:20.164Z,1000.41
2016-03-24T06:02:20.181Z,1000.45
2016-03-24T06:03:20.184Z,1000.45
2016-03-24T06:04:20.202Z,1000.46
2016-03-24T06:05:20.220Z,1000.48
2016-03-24T06:06:20.223Z,1000.46
2016-03-24T06:07:20.242Z,1000.48
2016-03-24T06:08:20.261Z,1000.51
2016-03-24T06:09:20.278Z,1000.49
2016-03-24T06:10:20.296Z,1000.48
2016-03-24T06:11:20.315Z,1000.51
2016-03-24T06:12:20.318Z,1000.53
2016-03-24T06:13:20.336Z,1000.53
2016-03-24T06:14:20.354Z,1000.52
2016-03-24T06:15:20.372Z,1000.58
2016-03-24T06:16:20.375Z,1000.58
2016-03-24T06:17:20.394Z,1000.54
2016-03-24T06:18:20.412Z,1000.6
2016-03-24T06:19:20.462Z,1000.59
2016-03-24T06:20:20.448Z,1000.62
2016-03-24T06:21:20.467Z,1000.56
2016-03-24T06:22:20.470Z,1000.64
2016-03-24T06:23:20.488Z,1000.61
2016-03-24T06:24:20.506Z,1000.66
2016-03-24T06:25:20.524Z,1000.64
2016-03-24T06:26:20.542Z,1000.67
2016-03-24T06:27:20.546Z,1000.66
2016-03-24T06:28:20.564Z,1000.66
2016-03-24T06:29:20.598Z,1000.67
2016-03-24T06:30:20.600Z,1000.7
2016-03-24T06:31:20.620Z,1000.7
2016-03-24T06:32:20.637Z,1000.73
2016-03-24T06:33:20.656Z,1000.74
2016-03-24T06:34:20.658Z,1000.75
2016-03-24T06:35:20.676Z,1000.74
2016-03-24T06:36:20.695Z,1000.76
2016-03-24T06:37:20.714Z,1000.79
2016-03-24T06:38:20.716Z,1000.77
2016-03-24T06:39:20.734Z,1000.8
2016-03-24T06:40:20.752Z,1000.8
2016-03-24T06:41:20.771Z,1000.8
2016-03-24T06:42:20.789Z,1000.8
2016-03-24T06:43:20.808Z,1000.79
2016-03-24T06:44:20.810Z,1000.81
2016-03-24T06:45:20.828Z,1000.83
2016-03-24T06:46:20.847Z,1000.8
2016-03-24T06:47:20.866Z,1000.83
2016-03-24T06:48:20.883Z,1000.85
2016-03-24T06:49:20.885Z,1000.83
2016-03-24T06:50:20.904Z,1000.85
2016-03-24T06:51:20.938Z,1000.89
2016-03-24T06:52:20.941Z,1000.9
2016-03-24T06:53:20.959Z,1000.9
2016-03-24T06:54:20.977Z,1000.97
2016-03-24T06:55:20.995Z,1000.97
2016-03-24T06:56:20.999Z,1000.97
2016-03-24T06:57:21.017Z,1000.96
2016-03-24T06:58:21.035Z,1000.97
2016-03-24T06:59:21.053Z,1000.99
2016-03-24T07:00:21.073Z,1000.94
2016-03-24T07:01:21.075Z,1000.97
2016-03-24T07:02:21.093Z,1000.95
2016-03-24T07:03:21.111Z,1000.99
2016-03-24T07:04:21.129Z,1000.95
2016-03-24T07:05:21.148Z,1000.98
2016-03-24T07:06:21.151Z,1000.97
2016-03-24T07:07:21.169Z,1001
2016-03-24T07:08:21.187Z,1001.02
2016-03-24T07:09:21.206Z,1001.03
2016-03-24T07:10:21.209Z,1001
2016-03-24T07:11:21.227Z,1001.02
2016-03-24T07:12:21.244Z,1001.01
2016-03-24T07:13:21.263Z,1001.04
2016-03-24T07:14:21.297Z,1001.04
2016-03-24T07:15:21.300Z,1001.03
2016-03-24T07:16:21.318Z,1001.07
2016-03-24T07:17:21.336Z,1001.11
2016-03-24T07:18:21.338Z,1001.13
2016-03-24T07:19:21.358Z,1001.12
2016-03-24T07:20:21.376Z,1001.1
2016-03-24T07:21:21.393Z,1001.13
2016-03-24T07:22:21.413Z,1001.14
2016-03-24T07:23:21.430Z,1001.15
2016-03-24T07:24:21.433Z,1001.17
2016-03-24T07:25:21.452Z,1001.16
2016-03-24T07:26:21.470Z,1001.19
2016-03-24T07:27:21.488Z,1001.19
2016-03-24T07:28:21.507Z,1001.19
2016-03-24T07:29:21.510Z,1001.2
2016-03-24T07:30:21.528Z,1001.21
2016-03-24T07:31:21.545Z,1001.22
2016-03-24T07:32:21.565Z,1001.26
2016-03-24T07:33:21.582Z,1001.27
2016-03-24T07:34:21.601Z,1001.26
2016-03-24T07:35:21.604Z,1001.28
2016-03-24T07:36:21.622Z,1001.25
2016-03-24T07:37:21.640Z,1001.28
2016-03-24T07:38:21.658Z,1001.3
2016-03-24T07:39:21.677Z,1001.3
2016-03-24T07:40:21.695Z,1001.32
2016-03-24T07:41:21.697Z,1001.29
2016-03-24T07:42:21.716Z,1001.33
2016-03-24T07:43:21.734Z,1001.35
2016-03-24T07:44:21.753Z,1001.35
2016-03-24T07:45:21.771Z,1001.35
2016-03-24T07:46:21.789Z,1001.36
2016-03-24T07:47:21.791Z,1001.32
2016-03-24T07:48:21.811Z,1001.36
2016-03-24T07:49:21.829Z,1001.39
2016-03-24T07:50:21.846Z,1001.4
2016-03-24T07:51:21.866Z,1001.44
2016-03-24T07:52:21.868Z,1001.45
2016-03-24T07:53:21.886Z,1001.44
2016-03-24T07:54:21.905Z,1001.47
2016-03-24T07:55:21.923Z,1001.51
2016-03-24T07:56:21.941Z,1001.46
2016-03-24T07:57:21.960Z,1001.51
2016-03-24T07:58:21.979Z,1001.48
2016-03-24T07:59:21.981Z,1001.46
2016-03-24T08:00:21.998Z,1001.46
2016-03-24T08:01:22.018Z,1001.45
2016-03-24T08:02:22.035Z,1001.46
2016-03-24T08:03:22.054Z,1001.43
2016-03-24T08:04:22.073Z,1001.4
2016-03-24T08:05:22.075Z,1001.4
2016-03-24T08:06:22.092Z,1001.44
2016-03-24T08:07:22.122Z,1001.43
2016-03-24T08:08:22.124Z,1001.5
2016-03-24T08:09:22.142Z,1001.44
2016-03-24T08:10:22.161Z,1001.47
2016-03-24T08:11:22.179Z,1001.5
2016-03-24T08:12:22.197Z,1001.5
2016-03-24T08:13:22.199Z,1001.5
2016-03-24T08:14:22.218Z,1001.51
2016-03-24T08:15:22.236Z,1001.47
2016-03-24T08:16:22.255Z,1001.49
2016-03-24T08:17:22.273Z,1001.52
2016-03-24T08:18:22.291Z,1001.51
2016-03-24T08:19:22.310Z,1001.57
2016-03-24T08:20:22.313Z,1001.61
2016-03-24T08:21:22.331Z,1001.58
2016-03-24T08:22:22.348Z,1001.63
2016-03-24T08:23:22.368Z,1001.61
2016-03-24T08:24:22.385Z,1001.65
2016-03-24T08:25:22.404Z,1001.62
2016-03-24T08:26:22.423Z,1001.59
2016-03-24T08:27:22.425Z,1001.59
2016-03-24T08:28:22.443Z,1001.59
2016-03-24T08:29:22.462Z,1001.56
2016-03-24T08:30:22.480Z,1001.58
2016-03-24T08:31:22.498Z,1001.6
2016-03-24T08:32:22.517Z,1001.62
2016-03-24T08:33:22.534Z,1001.59
2016-03-24T08:34:22.526Z,1001.58
2016-03-24T08:35:22.529Z,1001.59
2016-03-24T08:36:22.531Z,1001.61
2016-03-24T08:37:22.534Z,1001.6
2016-03-24T08:38:22.536Z,1001.61
2016-03-24T08:39:22.561Z,1001.59
2016-03-24T08:40:22.559Z,1001.58
2016-03-24T08:41:22.559Z,1001.57
2016-03-24T08:42:22.571Z,1001.57
2016-03-24T08:43:22.584Z,1001.55
2016-03-24T08:44:22.596Z,1001.56
2016-03-24T08:45:22.612Z,1001.56
2016-03-24T08:46:22.628Z,1001.58
2016-03-24T08:47:22.646Z,1001.59
2016-03-24T08:48:22.662Z,1001.56
2016-03-24T08:49:22.679Z,1001.58
2016-03-24T08:50:22.696Z,1001.6
2016-03-24T08:51:22.699Z,1001.6
2016-03-24T08:52:22.715Z,1001.59
2016-03-24T08:53:22.734Z,1001.58
2016-03-24T08:54:22.752Z,1001.69
2016-03-24T08:55:22.769Z,1001.66
2016-03-24T08:56:22.788Z,1001.62
2016-03-24T08:57:22.805Z,1001.68
2016-03-24T08:58:22.823Z,1001.68
2016-03-24T08:59:22.825Z,1001.66
2016-03-24T09:00:22.844Z,1001.73
2016-03-24T09:01:22.862Z,1001.77
2016-03-24T09:02:22.881Z,1001.75
2016-03-24T09:03:22.899Z,1001.74
2016-03-24T09:04:22.917Z,1001.78
2016-03-24T09:05:22.936Z,1001.74
2016-03-24T09:06:22.954Z,1001.8
2016-03-24T09:07:22.972Z,1001.8
2016-03-24T09:08:22.990Z,1001.82
2016-03-24T09:09:22.993Z,1001.82
2016-03-24T09:10:23.011Z,1001.81
2016-03-24T09:11:23.030Z,1001.87
2016-03-24T09:12:23.048Z,1001.92
2016-03-24T09:13:23.066Z,1001.87
2016-03-24T09:14:23.085Z,1001.84
2016-03-24T09:15:23.103Z,1001.82
2016-03-24T09:16:23.121Z,1001.84
2016-03-24T09:17:23.155Z,1001.87
2016-03-24T09:18:23.142Z,1001.85
2016-03-24T09:19:23.160Z,1001.86
2016-03-24T09:20:23.179Z,1001.85
2016-03-24T09:21:23.198Z,1001.86
2016-03-24T09:22:23.215Z,1001.86
2016-03-24T09:23:23.234Z,1001.86
2016-03-24T09:24:23.253Z,1001.87
2016-03-24T09:25:23.286Z,1001.88
2016-03-24T09:26:23.289Z,1001.9
2016-03-24T09:27:23.307Z,1001.9
2016-03-24T09:28:23.326Z,1001.92
2016-03-24T09:29:23.344Z,1001.96
2016-03-24T09:30:23.362Z,1001.92
2016-03-24T09:31:23.380Z,1001.98
2016-03-24T09:32:23.399Z,1001.99
2016-03-24T09:33:23.417Z,1001.96
2016-03-24T09:34:23.419Z,1001.97
2016-03-24T09:35:23.438Z,1001.98
2016-03-24T09:36:23.456Z,1001.94
2016-03-24T09:37:23.475Z,1001.92
2016-03-24T09:38:23.493Z,1001.91
2016-03-24T09:39:23.527Z,1001.96
2016-03-24T09:40:23.530Z,1001.91
2016-03-24T09:41:23.548Z,1001.93
2016-03-24T09:42:23.566Z,1001.91
2016-03-24T09:43:23.585Z,1001.91
2016-03-24T09:44:23.603Z,1001.89
2016-03-24T09:45:23.621Z,1001.88
2016-03-24T09:46:23.640Z,1001.92
2016-03-24T09:47:23.658Z,1001.91
2016-03-24T09:48:23.660Z,1001.91
2016-03-24T09:49:23.695Z,1001.93
2016-03-24T09:50:23.697Z,1001.91
2016-03-24T09:51:23.715Z,1001.96
2016-03-24T09:52:23.734Z,1001.92
2016-03-24T09:53:23.751Z,1001.92
2016-03-24T09:54:23.771Z,1001.95
2016-03-24T09:55:23.789Z,1001.94
2016-03-24T09:56:23.806Z,1001.93
2016-03-24T09:57:23.826Z,1001.95
2016-03-24T09:58:23.844Z,1001.93
2016-03-24T09:59:23.861Z,1001.97
2016-03-24T10:00:23.881Z,1001.95
2016-03-24T10:01:23.898Z,1001.99
2016-03-24T10:02:23.917Z,1002.01
2016-03-24T10:03:23.936Z,1002
2016-03-24T10:04:23.953Z,1002.03
2016-03-24T10:05:23.972Z,1002.08
2016-03-24T10:06:23.991Z,1002.06
2016-03-24T10:07:24.008Z,1002.06
2016-03-24T10:08:24.010Z,1002.1
2016-03-24T10:09:24.030Z,1002.1
2016-03-24T10:10:24.047Z,1002.12
2016-03-24T10:11:24.066Z,1002.1
2016-03-24T10:12:24.085Z,1002.12
2016-03-24T10:13:24.119Z,1002.09
2016-03-24T10:14:24.121Z,1002.11
2016-03-24T10:15:24.140Z,1002.07
2016-03-24T10:16:24.157Z,1002.11
2016-03-24T10:17:24.176Z,1002.11
2016-03-24T10:18:24.194Z,1002.08
2016-03-24T10:19:24.213Z,1002.08
2016-03-24T10:20:24.231Z,1002.09
2016-03-24T10:21:24.249Z,1002.08
2016-03-24T10:22:24.268Z,1002.1
2016-03-24T10:23:24.287Z,1002.07
2016-03-24T10:24:24.304Z,1002.12
2016-03-24T10:25:24.322Z,1002.11
2016-03-24T10:26:24.340Z,1002.1
2016-03-24T10:27:24.359Z,1002.09
2016-03-24T10:28:24.378Z,1002.14
2016-03-24T10:29:24.395Z,1002.16
2016-03-24T10:30:24.415Z,1002.18
2016-03-24T10:31:24.433Z,1002.13
2016-03-24T10:32:24.451Z,1002.16
2016-03-24T10:33:24.469Z,1002.12
2016-03-24T10:34:24.472Z,1002.14
2016-03-24T10:35:24.506Z,1002.13
2016-03-24T10:36:24.508Z,1002.1
2016-03-24T10:37:24.526Z,1002.16
2016-03-24T10:38:24.561Z,1002.18
2016-03-24T10:39:24.563Z,1002.19
2016-03-24T10:40:24.582Z,1002.16
2016-03-24T10:41:24.599Z,1002.14
2016-03-24T10:42:24.634Z,1002.12
2016-03-24T10:43:24.636Z,1002.11
2016-03-24T10:44:24.654Z,1002.13
2016-03-24T10:45:24.673Z,1002.09
2016-03-24T10:46:24.691Z,1002.16
2016-03-24T10:47:24.709Z,1002.12
2016-03-24T10:48:24.728Z,1002.16
2016-03-24T10:49:24.746Z,1002.16
2016-03-24T10:50:24.765Z,1002.19
2016-03-24T10:51:24.782Z,1002.13
2016-03-24T10:52:24.817Z,1002.17
2016-03-24T10:53:24.820Z,1002.18
2016-03-24T10:54:24.838Z,1002.18
2016-03-24T10:55:24.856Z,1002.14
2016-03-24T10:56:24.875Z,1002.14
2016-03-24T10:57:24.893Z,1002.14
2016-03-24T10:58:24.911Z,1002.14
2016-03-24T10:59:24.929Z,1002.14
2016-03-24T11:00:24.947Z,1002.2
2016-03-24T11:01:24.967Z,1002.23
2016-03-24T11:02:24.985Z,1002.19
2016-03-24T11:03:25.003Z,1002.21
2016-03-24T11:04:25.022Z,1002.23
2016-03-24T11:05:25.039Z,1002.22
2016-03-24T11:06:25.058Z,1002.23
2016-03-24T11:07:25.076Z,1002.23
2016-03-24T11:08:25.094Z,1002.19
2016-03-24T11:09:25.112Z,1002.2
2016-03-24T11:10:25.130Z,1002.21
2016-03-24T11:11:25.149Z,1002.2
2016-03-24T11:12:25.168Z,1002.22
2016-03-24T11:13:25.186Z,1002.2
2016-03-24T11:14:25.204Z,1002.18
2016-03-24T11:15:25.222Z,1002.26
2016-03-24T11:16:25.240Z,1002.26
2016-03-24T11:17:25.260Z,1002.22
2016-03-24T11:18:25.277Z,1002.19
2016-03-24T11:19:25.296Z,1002.21
2016-03-24T11:20:25.314Z,1002.2
2016-03-24T11:21:25.332Z,1002.18
2016-03-24T11:22:25.351Z,1002.15
2016-03-24T11:23:25.368Z,1002.15
2016-03-24T11:24:25.388Z,1002.09
2016-03-24T11:25:25.406Z,1002.14
2016-03-24T11:26:25.439Z,1002.05
2016-03-24T11:27:25.443Z,1002.06
2016-03-24T11:28:25.476Z,1002.03
2016-03-24T11:29:25.478Z,1002.02
2016-03-24T11:30:25.513Z,1002
2016-03-24T11:31:25.515Z,1002
2016-03-24T11:32:25.534Z,1001.98
2016-03-24T11:33:25.568Z,1002.03
2016-03-24T11:34:25.586Z,1002.01
2016-03-24T11:35:25.605Z,1002.04
2016-03-24T11:36:25.622Z,1002
2016-03-24T11:37:25.641Z,1002.03
2016-03-24T11:38:25.659Z,1002
2016-03-24T11:39:25.678Z,1001.95
2016-03-24T11:40:25.696Z,1001.96
2016-03-24T11:41:25.714Z,1001.95
2016-03-24T11:42:25.733Z,1001.98
2016-03-24T11:43:25.751Z,1001.97
2016-03-24T11:44:25.769Z,1001.94
2016-03-24T11:45:25.788Z,1001.95
2016-03-24T11:46:25.805Z,1001.94
2016-03-24T11:47:25.841Z,1001.96
2016-03-24T11:48:25.843Z,1001.95
2016-03-24T11:49:25.860Z,1001.9
2016-03-24T11:50:25.879Z,1001.93
2016-03-24T11:51:25.912Z,1001.91
2016-03-24T11:52:25.931Z,1001.89
2016-03-24T11:53:25.949Z,1001.93
2016-03-24T11:54:25.968Z,1001.9
2016-03-24T11:55:25.987Z,1001.83
2016-03-24T11:56:26.004Z,1001.91
2016-03-24T11:57:26.023Z,1001.83
2016-03-24T11:58:26.042Z,1001.82
2016-03-24T11:59:26.059Z,1001.81
2016-03-24T12:00:26.078Z,1001.84
2016-03-24T12:01:26.096Z,1001.86
2016-03-24T12:02:26.131Z,1001.84
2016-03-24T12:03:26.148Z,1001.86
2016-03-24T12:04:26.167Z,1001.87
2016-03-24T12:05:26.185Z,1001.88
2016-03-24T12:06:26.203Z,1001.9
2016-03-24T12:07:26.222Z,1001.9
2016-03-24T12:08:26.239Z,1001.96
2016-03-24T12:09:26.259Z,1001.9
2016-03-24T12:10:26.277Z,1001.9
2016-03-24T12:11:26.310Z,1001.88
2016-03-24T12:12:26.329Z,1001.86
2016-03-24T12:13:26.347Z,1001.84
2016-03-24T12:14:26.366Z,1001.77
2016-03-24T12:15:26.383Z,1001.73
2016-03-24T12:16:26.403Z,1001.76
2016-03-24T12:17:26.421Z,1001.72
2016-03-24T12:18:26.438Z,1001.74
2016-03-24T12:19:26.473Z,1001.76